Time,TemperatureF,DewpointF,PressureIn,WindDirection,WindDirectionDegrees,WindSpeedMPH,WindSpeedGustMPH,Humidity,HourlyPrecipIn,Conditions,Clouds,dailyrainin,SoftwareType,DateUTC
2013-08-03 00:00:00,76.0,67.1,30.04,SSW,203,0.0,0.0,74,0.00,,,0.00,WUHU216HW,2013-08-03 04:00:00,
2013-08-03 00:01:00,76.0,67.1,30.04,SSW,203,0.0,0.0,74,0.00,,,0.00,WUHU216HW,2013-08-03 04:01:00,
2013-08-03 00:02:00,76.0,67.1,30.04,SSW,203,0.0,0.0,74,0.00,,,0.00,WUHU216HW,2013-08-03 04:02:00,
2013-08-03 00:07:00,76.0,67.1,30.04,SSW,203,0.0,0.0,74,0.00,,,0.00,WUHU216HW,2013-08-03 04:07:00,
2013-08-03 00:30:00,75.2,67.6,30.04,South,180,0.0,0.0,77,0.00,,,0.00,WUHU216HW,2013-08-03 04:30:00,
2013-08-03 00:35:00,75.2,67.6,30.04,South,180,0.0,0.0,77,0.00,,,0.00,WUHU216HW,2013-08-03 04:35:00,
2013-08-03 01:00:00,76.3,67.8,30.04,South,180,0.0,0.0,75,0.00,,,0.00,WUHU216HW,2013-08-03 05:00:00,
2013-08-03 01:05:00,76.3,67.8,30.04,South,180,0.0,0.0,75,0.00,,,0.00,WUHU216HW,2013-08-03 05:05:00,
2013-08-03 01:30:00,76.3,67.4,30.04,SSW,203,0.0,0.0,74,0.00,,,0.00,WUHU216HW,2013-08-03 05:30:00,
2013-08-03 01:35:00,76.3,67.4,30.04,SSW,203,0.0,0.0,74,0.00,,,0.00,WUHU216HW,2013-08-03 05:35:00,
2013-08-03 02:00:00,76.1,68.4,30.04,SW,225,0.8,0.8,77,0.00,,,0.00,WUHU216HW,2013-08-03 06:00:00,
2013-08-03 02:05:00,76.1,68.4,30.04,SW,225,0.8,0.8,77,0.00,,,0.00,WUHU216HW,2013-08-03 06:05:00,
2013-08-03 02:30:00,76.7,68.5,30.04,SE,135,0.4,0.4,76,0.00,,,0.00,WUHU216HW,2013-08-03 06:30:00,
2013-08-03 02:35:00,76.7,68.5,30.04,SE,135,0.4,0.4,76,0.00,,,0.00,WUHU216HW,2013-08-03 06:35:00,
2013-08-03 03:00:00,76.0,67.5,30.02,East,90,0.8,0.8,75,0.00,,,0.00,WUHU216HW,2013-08-03 07:00:00,
2013-08-03 03:05:00,76.0,67.5,30.02,East,90,0.8,0.8,75,0.00,,,0.00,WUHU216HW,2013-08-03 07:05:00,
2013-08-03 03:30:00,74.7,67.1,30.01,SSE,158,0.0,0.0,77,0.00,,,0.00,WUHU216HW,2013-08-03 07:30:00,
2013-08-03 03:35:00,74.7,67.1,30.01,SSE,158,0.0,0.0,77,0.00,,,0.00,WUHU216HW,2013-08-03 07:35:00,
2013-08-03 03:59:00,75.4,68.1,30.02,South,180,0.0,0.0,78,0.00,,,0.00,WUHU216HW,2013-08-03 07:59:00,
2013-08-03 04:00:00,75.4,68.1,30.02,South,180,0.0,0.0,78,0.00,,,0.00,WUHU216HW,2013-08-03 08:00:00,
2013-08-03 04:05:00,75.4,68.1,30.02,South,180,0.0,0.0,78,0.00,,,0.00,WUHU216HW,2013-08-03 08:05:00,
2013-08-03 04:30:00,75.2,68.0,30.01,SE,135,0.4,0.4,78,0.00,,,0.00,WUHU216HW,2013-08-03 08:30:00,
2013-08-03 04:35:00,75.2,68.0,30.01,SE,135,0.4,0.4,78,0.00,,,0.00,WUHU216HW,2013-08-03 08:35:00,
2013-08-03 05:00:00,75.6,68.0,30.02,SSE,158,0.0,0.0,77,0.00,,,0.00,WUHU216HW,2013-08-03 09:00:00,
2013-08-03 05:05:00,75.6,68.0,30.02,SSE,158,0.0,0.0,77,0.00,,,0.00,WUHU216HW,2013-08-03 09:05:00,
2013-08-03 05:30:00,75.4,67.8,30.02,SSE,158,0.0,0.0,77,0.00,,,0.00,WUHU216HW,2013-08-03 09:30:00,
2013-08-03 05:35:00,75.4,67.8,30.02,SSE,158,0.0,0.0,77,0.00,,,0.00,WUHU216HW,2013-08-03 09:35:00,
2013-08-03 05:59:00,76.1,68.8,30.03,SSW,203,0.0,0.0,78,0.00,,,0.00,WUHU216HW,2013-08-03 09:59:00,
2013-08-03 06:00:00,76.1,68.8,30.03,SSW,203,0.0,0.0,78,0.00,,,0.00,WUHU216HW,2013-08-03 10:00:00,
2013-08-03 06:05:00,76.1,68.8,30.03,SSW,203,0.0,0.0,78,0.00,,,0.00,WUHU216HW,2013-08-03 10:05:00,
2013-08-03 06:30:00,76.1,68.4,30.03,SSE,158,0.0,0.0,77,0.00,,,0.00,WUHU216HW,2013-08-03 10:30:00,
2013-08-03 06:35:00,76.1,68.4,30.03,SSE,158,0.0,0.0,77,0.00,,,0.00,WUHU216HW,2013-08-03 10:35:00,
2013-08-03 07:00:00,76.5,68.8,30.04,SE,135,0.0,0.0,77,0.00,,,0.00,WUHU216HW,2013-08-03 11:00:00,
2013-08-03 07:05:00,76.5,68.8,30.04,SE,135,0.0,0.0,77,0.00,,,0.00,WUHU216HW,2013-08-03 11:05:00,
2013-08-03 07:30:00,76.1,68.4,30.04,SW,225,0.0,0.0,77,0.00,,,0.00,WUHU216HW,2013-08-03 11:30:00,
2013-08-03 07:35:00,76.1,68.4,30.04,SW,225,0.0,0.0,77,0.00,,,0.00,WUHU216HW,2013-08-03 11:35:00,
2013-08-03 08:00:00,76.9,69.1,30.04,SSW,203,0.0,0.0,77,0.00,,,0.00,WUHU216HW,2013-08-03 12:00:00,
2013-08-03 08:05:00,76.9,69.1,30.04,SSW,203,0.0,0.0,77,0.00,,,0.00,WUHU216HW,2013-08-03 12:05:00,
2013-08-03 08:30:00,77.0,69.2,30.04,SSW,203,0.0,0.0,77,0.00,,,0.00,WUHU216HW,2013-08-03 12:30:00,
2013-08-03 08:35:00,77.0,69.2,30.04,SSW,203,0.0,0.0,77,0.00,,,0.00,WUHU216HW,2013-08-03 12:35:00,
2013-08-03 09:00:00,77.4,69.6,30.04,SSW,203,0.0,0.0,77,0.00,,,0.00,WUHU216HW,2013-08-03 13:00:00,
2013-08-03 09:05:00,77.4,69.6,30.04,SSW,203,0.0,0.0,77,0.00,,,0.00,WUHU216HW,2013-08-03 13:05:00,
2013-08-03 09:30:00,77.8,69.6,30.04,SSE,158,2.6,2.6,76,0.00,,,0.00,WUHU216HW,2013-08-03 13:30:00,
2013-08-03 09:35:00,77.8,69.6,30.04,SSE,158,2.6,2.6,76,0.00,,,0.00,WUHU216HW,2013-08-03 13:35:00,
2013-08-03 09:59:00,78.3,70.1,30.04,WSW,248,0.8,0.8,76,0.00,,,0.00,WUHU216HW,2013-08-03 13:59:00,
2013-08-03 10:00:00,78.3,70.1,30.04,WSW,248,0.8,0.8,76,0.00,,,0.00,WUHU216HW,2013-08-03 14:00:00,
2013-08-03 10:05:00,78.3,70.1,30.04,WSW,248,0.8,0.8,76,0.00,,,0.00,WUHU216HW,2013-08-03 14:05:00,
2013-08-03 10:29:00,79.2,70.6,30.04,South,180,1.4,1.4,75,0.00,,,0.00,WUHU216HW,2013-08-03 14:29:00,
2013-08-03 10:30:00,79.2,70.6,30.04,South,180,1.4,1.4,75,0.00,,,0.00,WUHU216HW,2013-08-03 14:30:00,
2013-08-03 10:35:00,79.2,70.6,30.04,South,180,1.4,1.4,75,0.00,,,0.00,WUHU216HW,2013-08-03 14:35:00,
2013-08-03 10:59:00,81.7,71.8,30.04,SE,135,2.6,2.6,72,0.00,,,0.00,WUHU216HW,2013-08-03 14:59:00,
2013-08-03 11:00:00,81.7,71.8,30.04,SE,135,2.6,2.6,72,0.00,,,0.00,WUHU216HW,2013-08-03 15:00:00,
2013-08-03 11:05:00,81.7,71.8,30.04,SE,135,2.6,2.6,72,0.00,,,0.00,WUHU216HW,2013-08-03 15:05:00,
2013-08-03 11:29:00,82.6,72.3,30.02,SE,135,0.8,0.8,71,0.00,,,0.00,WUHU216HW,2013-08-03 15:29:00,
2013-08-03 11:30:00,82.6,72.3,30.02,SE,135,0.8,0.8,71,0.00,,,0.00,WUHU216HW,2013-08-03 15:30:00,
2013-08-03 11:35:00,82.6,72.3,30.02,SE,135,0.8,0.8,71,0.00,,,0.00,WUHU216HW,2013-08-03 15:35:00,
2013-08-03 12:00:00,83.2,71.9,30.03,West,270,1.8,1.8,69,0.00,,,0.00,WUHU216HW,2013-08-03 16:00:00,
2013-08-03 12:05:00,83.2,71.9,30.03,West,270,1.4,1.8,69,0.00,,,0.00,WUHU216HW,2013-08-03 16:05:00,
2013-08-03 12:30:00,84.6,72.9,30.02,NNW,338,0.4,0.4,68,0.00,,,0.00,WUHU216HW,2013-08-03 16:30:00,
2013-08-03 12:35:00,84.6,72.9,30.02,NNW,338,0.4,0.4,68,0.00,,,0.00,WUHU216HW,2013-08-03 16:35:00,
2013-08-03 13:00:00,84.2,72.1,30.01,NW,315,1.4,1.4,67,0.00,,,0.00,WUHU216HW,2013-08-03 17:00:00,
2013-08-03 13:05:00,84.2,72.1,30.01,NW,315,1.4,1.4,67,0.00,,,0.00,WUHU216HW,2013-08-03 17:05:00,
2013-08-03 13:30:00,86.4,74.2,30.01,WNW,293,0.0,0.0,67,0.00,,,0.00,WUHU216HW,2013-08-03 17:30:00,
2013-08-03 13:35:00,86.4,74.2,30.01,WNW,293,0.0,0.0,67,0.00,,,0.00,WUHU216HW,2013-08-03 17:35:00,
2013-08-03 14:00:00,87.7,73.1,29.99,SSE,158,0.8,0.8,62,0.00,,,0.00,WUHU216HW,2013-08-03 18:00:00,
2013-08-03 14:05:00,87.7,73.1,29.99,SSE,158,0.8,0.8,62,0.00,,,0.00,WUHU216HW,2013-08-03 18:05:00,
2013-08-03 14:30:00,88.0,72.6,29.99,SSW,203,0.8,0.8,60,0.00,,,0.00,WUHU216HW,2013-08-03 18:30:00,
2013-08-03 14:35:00,88.0,72.6,29.99,SSW,203,0.8,0.8,60,0.00,,,0.00,WUHU216HW,2013-08-03 18:35:00,
2013-08-03 15:00:00,89.5,71.6,29.98,WSW,248,0.8,0.8,56,0.00,,,0.00,WUHU216HW,2013-08-03 19:00:00,
2013-08-03 15:05:00,89.5,71.6,29.98,WSW,248,0.8,0.8,56,0.00,,,0.00,WUHU216HW,2013-08-03 19:05:00,
2013-08-03 15:30:00,90.0,71.1,29.97,South,180,1.4,1.4,54,0.00,,,0.00,WUHU216HW,2013-08-03 19:30:00,
2013-08-03 15:35:00,90.0,71.1,29.97,South,180,1.4,1.4,54,0.00,,,0.00,WUHU216HW,2013-08-03 19:35:00,
2013-08-03 16:00:00,90.0,70.6,29.95,SSW,203,0.8,0.8,53,0.00,,,0.00,WUHU216HW,2013-08-03 20:00:00,
2013-08-03 16:05:00,90.0,70.6,29.95,SSW,203,0.8,0.8,53,0.00,,,0.00,WUHU216HW,2013-08-03 20:05:00,
2013-08-03 16:30:00,89.5,71.1,29.95,SSW,203,3.6,3.6,55,0.00,,,0.00,WUHU216HW,2013-08-03 20:30:00,
2013-08-03 16:35:00,89.5,71.1,29.95,SSW,203,3.6,3.6,55,0.00,,,0.00,WUHU216HW,2013-08-03 20:35:00,
2013-08-03 17:00:00,89.6,71.3,29.95,NW,315,0.8,0.8,55,0.00,,,0.00,WUHU216HW,2013-08-03 21:00:00,
2013-08-03 17:30:00,88.9,71.7,29.95,SSE,158,3.6,3.6,57,0.00,,,0.00,WUHU216HW,2013-08-03 21:30:00,
2013-08-03 17:35:00,88.9,71.7,29.95,SSE,158,3.6,3.6,57,0.00,,,0.00,WUHU216HW,2013-08-03 21:35:00,
2013-08-03 18:00:00,88.0,71.5,29.94,West,270,0.8,0.8,58,0.00,,,0.00,WUHU216HW,2013-08-03 22:00:00,
2013-08-03 18:05:00,88.0,71.5,29.94,West,270,0.8,0.8,58,0.00,,,0.00,WUHU216HW,2013-08-03 22:05:00,
2013-08-03 18:30:00,86.6,71.6,29.94,SSE,158,0.0,0.0,61,0.00,,,0.00,WUHU216HW,2013-08-03 22:30:00,
2013-08-03 18:35:00,86.6,71.6,29.94,SSE,158,0.0,0.0,61,0.00,,,0.00,WUHU216HW,2013-08-03 22:35:00,
2013-08-03 19:00:00,85.9,71.8,29.93,West,270,0.8,0.8,63,0.00,,,0.00,WUHU216HW,2013-08-03 23:00:00,
2013-08-03 19:05:00,85.9,71.8,29.93,West,270,0.8,0.8,63,0.00,,,0.00,WUHU216HW,2013-08-03 23:05:00,
2013-08-03 19:30:00,84.1,72.4,29.94,ENE,68,1.4,1.4,68,0.00,,,0.00,WUHU216HW,2013-08-03 23:30:00,
2013-08-03 19:35:00,84.1,72.4,29.94,ENE,68,1.4,1.4,68,0.00,,,0.00,WUHU216HW,2013-08-03 23:35:00,
2013-08-03 20:00:00,82.6,72.3,29.95,SSW,203,1.4,1.4,71,0.00,,,0.00,WUHU216HW,2013-08-04 00:00:00,
2013-08-03 20:05:00,82.6,72.3,29.95,SSW,203,1.4,1.4,71,0.00,,,0.00,WUHU216HW,2013-08-04 00:05:00,
2013-08-03 20:30:00,81.4,70.2,29.96,East,90,0.0,0.0,69,0.00,,,0.00,WUHU216HW,2013-08-04 00:30:00,
2013-08-03 20:35:00,81.4,70.2,29.96,East,90,0.0,0.0,69,0.00,,,0.00,WUHU216HW,2013-08-04 00:35:00,
2013-08-03 21:00:00,79.6,68.5,29.96,SE,135,0.0,0.0,69,0.00,,,0.00,WUHU216HW,2013-08-04 01:00:00,
2013-08-03 21:05:00,79.6,68.5,29.96,SE,135,0.0,0.0,69,0.00,,,0.00,WUHU216HW,2013-08-04 01:05:00,
2013-08-03 21:30:00,78.8,69.4,29.97,SSE,158,0.0,0.0,73,0.00,,,0.00,WUHU216HW,2013-08-04 01:30:00,
2013-08-03 21:35:00,78.8,69.4,29.97,SSE,158,0.0,0.0,73,0.00,,,0.00,WUHU216HW,2013-08-04 01:35:00,
2013-08-03 22:00:00,78.7,68.9,29.97,SE,135,0.0,0.0,72,0.00,,,0.00,WUHU216HW,2013-08-04 02:00:00,
2013-08-03 22:05:00,78.7,68.9,29.97,SE,135,0.0,0.0,72,0.00,,,0.00,WUHU216HW,2013-08-04 02:05:00,
2013-08-03 22:30:00,77.4,68.9,29.98,SSE,158,0.0,0.0,75,0.00,,,0.00,WUHU216HW,2013-08-04 02:30:00,
2013-08-03 22:35:00,77.4,68.9,29.98,SSE,158,0.0,0.0,75,0.00,,,0.00,WUHU216HW,2013-08-04 02:35:00,
2013-08-03 23:00:00,77.8,68.4,29.98,ESE,113,0.0,0.0,73,0.00,,,0.00,WUHU216HW,2013-08-04 03:00:00,
2013-08-03 23:05:00,77.8,68.4,29.98,ESE,113,0.0,0.0,73,0.00,,,0.00,WUHU216HW,2013-08-04 03:05:00,
2013-08-03 23:30:00,77.4,67.7,29.97,East,90,0.0,0.0,72,0.00,,,0.00,WUHU216HW,2013-08-04 03:30:00,
2013-08-03 23:35:00,77.4,67.7,29.97,East,90,0.0,0.0,72,0.00,,,0.00,WUHU216HW,2013-08-04 03:35:00,
2013-08-03 23:59:00,76.7,67.8,29.97,ESE,113,0.4,0.4,74,0.00,,,0.00,WUHU216HW,2013-08-04 03:59:00,